METAR Data
IDs: Format: Raw Decoded Include TAF

Data at: 0433 UTC 21 Sep 2018

KIXD 210353Z AUTO 19007KT 10SM CLR 24/21 A2988 RMK AO2 SLP106 T02440206
KIXD 210253Z 18010KT 10SM CLR 26/20 A2985 RMK AO2 SLP094 T02610200 51019
KIXD 210153Z 18008KT 10SM CLR 27/20 A2983 RMK AO2 SLP090 T02670200
KIXD 210053Z 18008KT 10SM CLR 28/20 A2981 RMK AO2 SLP082 T02780200
KIXD 202353Z 18010G19KT 10SM CLR 29/20 A2979 RMK AO2 SLP075 T02940200 10333 20294 58012
KIXD 202253Z 19015G27KT 10SM CLR 31/19 A2980 RMK AO2 PK WND 19030/2216 SLP078 T03110194
KIXD 202153Z 20021G29KT 10SM CLR 32/20 A2982 RMK AO2 PK WND 20031/2124 SLP083 T03220200
KIXD 202053Z 19019G27KT 10SM CLR 33/20 A2983 RMK AO2 PK WND 19033/1956 SLP086 T03280200 58016
KIXD 201953Z 19019G33KT 10SM CLR 33/20 A2985 RMK AO2 PK WND 19033/1947 SLP092 T03280200
KIXD 201853Z 19022G33KT 10SM FEW048 33/21 A2986 RMK AO2 PK WND 19033/1848 SLP096 T03280206
KIXD 201753Z 19017G25KT 10SM CLR 33/22 A2988 RMK AO2 PK WND 19028/1726 SLP102 T03280217 10328 20228 58013
KIXD 201653Z 19015G24KT 10SM CLR 31/22 A2989 RMK AO2 SLP109 T03110222
KIXD 201553Z 20015G23KT 10SM CLR 29/22 A2991 RMK AO2 SLP116 T02940222
KIXD 201453Z 18013G21KT 10SM CLR 27/22 A2991 RMK AO2 SLP117 T02720222 50002
KIXD 201353Z 17011KT 10SM CLR 26/22 A2992 RMK AO2 SLP119 T02560222
KIXD 201253Z 17009KT 10SM CLR 23/22 A2992 RMK AO2 SLP118 T02330217
KIXD 201153Z 17008KT 10SM CLR 23/22 A2991 RMK AO2 SLP114 T02330217 10256 20228 51001
KIXD 201053Z 17009KT 10SM CLR 23/22 A2991 RMK AO2 SLP114 T02330217
KIXD 200953Z AUTO 17007KT 10SM CLR 24/22 A2991 RMK AO2 SLP114 T02390217
KIXD 200853Z AUTO 17007KT 10SM CLR 24/22 A2991 RMK AO2 SLP113 T02390217 50001
KIXD 200753Z AUTO 18007KT 10SM CLR 24/22 A2991 RMK AO2 SLP114 T02440217
KIXD 200653Z AUTO 18009KT 10SM CLR 25/21 A2991 RMK AO2 SLP114 T02500211
KIXD 200553Z AUTO 17007KT 10SM CLR 25/21 A2990 RMK AO2 SLP112 T02500211 10294 20244 403330211 51003
KIXD 200453Z AUTO 16007KT 10SM CLR 25/21 A2990 RMK AO2 SLP112 T02500211
KIXD 200353Z AUTO 16007KT 10SM CLR 26/21 A2990 RMK AO2 SLP111 T02560211
KIXD 200253Z 15007KT 10SM CLR 27/21 A2989 RMK AO2 SLP109 T02670211 53005
KIXD 200153Z 15008KT 10SM CLR 27/22 A2989 RMK AO2 SLP108 T02720217
KIXD 200053Z 16006KT 10SM CLR 27/22 A2988 RMK AO2 SLP107 T02720217
KIXD 192353Z 16008KT 10SM CLR 29/22 A2988 RMK AO2 SLP105 T02940217 10333 20294 55005
KIXD 192253Z 18011KT 10SM CLR 32/21 A2988 RMK AO2 SLP104 T03170206
KIXD 192153Z 17011G21KT 10SM CLR 33/21 A2988 RMK AO2 SLP105 T03280206
KIXD 192053Z 17013G20KT 10SM CLR 33/21 A2990 RMK AO2 SLP110 T03280206 56020
KIXD 191953Z 16008KT 10SM CLR 33/22 A2991 RMK AO2 SLP114 T03330217
KIXD 191853Z 20012G18KT 10SM CLR 33/22 A2994 RMK AO2 SLP123 T03280217
KIXD 191753Z 17009G17KT 10SM CLR 32/23 A2996 RMK AO2 SLP131 T03170228 10317 20217 58003
KIXD 191653Z 17009KT 10SM BKN075 30/23 A2997 RMK AO2 SLP135 T03000228